sensor_id;sensor_type;location;lat;lon;timestamp;temperature;humidity
9837;DHT22;4957;51.412;6.724;2022-12-29T00:02:19;10.60;99.90
9837;DHT22;4957;51.412;6.724;2022-12-29T00:04:44;10.60;99.90
9837;DHT22;4957;51.412;6.724;2022-12-29T00:07:10;10.60;99.90
9837;DHT22;4957;51.412;6.724;2022-12-29T00:09:36;10.60;99.90
9837;DHT22;4957;51.412;6.724;2022-12-29T00:12:03;10.70;99.90
9837;DHT22;4957;51.412;6.724;2022-12-29T00:14:29;10.70;99.90
9837;DHT22;4957;51.412;6.724;2022-12-29T00:17:14;10.70;99.90
9837;DHT22;4957;51.412;6.724;2022-12-29T00:19:40;10.70;99.90
9837;DHT22;4957;51.412;6.724;2022-12-29T00:22:24;10.70;99.90
9837;DHT22;4957;51.412;6.724;2022-12-29T00:25:10;10.70;99.90
9837;DHT22;4957;51.412;6.724;2022-12-29T00:27:56;10.70;99.90
9837;DHT22;4957;51.412;6.724;2022-12-29T00:30:41;10.70;99.90
9837;DHT22;4957;51.412;6.724;2022-12-29T00:33:30;10.70;99.90
9837;DHT22;4957;51.412;6.724;2022-12-29T00:36:27;10.70;99.90
9837;DHT22;4957;51.412;6.724;2022-12-29T00:38:59;10.70;99.90
9837;DHT22;4957;51.412;6.724;2022-12-29T00:41:45;10.80;99.90
9837;DHT22;4957;51.412;6.724;2022-12-29T00:44:29;10.70;99.90
9837;DHT22;4957;51.412;6.724;2022-12-29T00:46:54;10.70;99.90
9837;DHT22;4957;51.412;6.724;2022-12-29T00:49:20;10.70;99.90
9837;DHT22;4957;51.412;6.724;2022-12-29T00:52:10;10.80;99.90
9837;DHT22;4957;51.412;6.724;2022-12-29T00:54:37;10.80;99.90
9837;DHT22;4957;51.412;6.724;2022-12-29T00:57:05;10.80;99.90
9837;DHT22;4957;51.412;6.724;2022-12-29T00:59:31;10.80;99.90
9837;DHT22;4957;51.412;6.724;2022-12-29T01:01:57;10.80;99.90
9837;DHT22;4957;51.412;6.724;2022-12-29T01:04:25;10.80;99.90
9837;DHT22;4957;51.412;6.724;2022-12-29T01:06:51;10.80;99.90
9837;DHT22;4957;51.412;6.724;2022-12-29T01:09:19;10.80;99.90
9837;DHT22;4957;51.412;6.724;2022-12-29T01:12:04;10.80;99.90
9837;DHT22;4957;51.412;6.724;2022-12-29T01:14:30;10.80;99.90
9837;DHT22;4957;51.412;6.724;2022-12-29T01:16:57;10.90;99.90
9837;DHT22;4957;51.412;6.724;2022-12-29T01:19:23;10.90;99.90
9837;DHT22;4957;51.412;6.724;2022-12-29T01:21:49;10.90;99.90
9837;DHT22;4957;51.412;6.724;2022-12-29T01:24:16;10.90;99.90
9837;DHT22;4957;51.412;6.724;2022-12-29T01:26:42;10.90;99.90
9837;DHT22;4957;51.412;6.724;2022-12-29T01:29:08;10.90;99.90
9837;DHT22;4957;51.412;6.724;2022-12-29T01:31:33;10.90;99.90
9837;DHT22;4957;51.412;6.724;2022-12-29T01:33:59;10.90;99.90
9837;DHT22;4957;51.412;6.724;2022-12-29T01:36:25;10.90;99.90
9837;DHT22;4957;51.412;6.724;2022-12-29T01:38:51;10.90;99.90
9837;DHT22;4957;51.412;6.724;2022-12-29T01:41:16;10.90;99.90
9837;DHT22;4957;51.412;6.724;2022-12-29T01:43:45;10.90;99.90
9837;DHT22;4957;51.412;6.724;2022-12-29T01:46:28;10.90;99.90
9837;DHT22;4957;51.412;6.724;2022-12-29T01:51:29;10.90;99.90
9837;DHT22;4957;51.412;6.724;2022-12-29T01:53:58;10.90;99.90
9837;DHT22;4957;51.412;6.724;2022-12-29T01:56:26;10.90;99.90
9837;DHT22;4957;51.412;6.724;2022-12-29T01:59:00;10.90;99.90
9837;DHT22;4957;51.412;6.724;2022-12-29T02:01:26;10.90;99.90
9837;DHT22;4957;51.412;6.724;2022-12-29T02:03:52;10.90;99.90
9837;DHT22;4957;51.412;6.724;2022-12-29T02:06:36;10.90;99.90
9837;DHT22;4957;51.412;6.724;2022-12-29T02:09:03;10.90;99.90
9837;DHT22;4957;51.412;6.724;2022-12-29T02:11:30;10.90;99.90
9837;DHT22;4957;51.412;6.724;2022-12-29T02:13:56;10.90;99.90
9837;DHT22;4957;51.412;6.724;2022-12-29T02:20:11;10.90;99.90
9837;DHT22;4957;51.412;6.724;2022-12-29T02:32:11;10.90;99.90
9837;DHT22;4957;51.412;6.724;2022-12-29T02:37:58;10.90;99.90
9837;DHT22;4957;51.412;6.724;2022-12-29T02:40:24;10.90;99.90
9837;DHT22;4957;51.412;6.724;2022-12-29T02:45:58;10.90;99.90
9837;DHT22;4957;51.412;6.724;2022-12-29T02:48:45;10.90;99.90
9837;DHT22;4957;51.412;6.724;2022-12-29T02:51:23;10.90;99.90
9837;DHT22;4957;51.412;6.724;2022-12-29T02:53:50;10.90;99.90
9837;DHT22;4957;51.412;6.724;2022-12-29T02:56:36;10.90;99.90
9837;DHT22;4957;51.412;6.724;2022-12-29T02:59:02;10.90;99.90
9837;DHT22;4957;51.412;6.724;2022-12-29T03:04:50;10.90;99.90
9837;DHT22;4957;51.412;6.724;2022-12-29T03:10:39;10.90;99.90
9837;DHT22;4957;51.412;6.724;2022-12-29T03:16:05;10.90;99.90
9837;DHT22;4957;51.412;6.724;2022-12-29T03:18:40;10.90;99.90
9837;DHT22;4957;51.412;6.724;2022-12-29T03:21:17;10.90;99.90
9837;DHT22;4957;51.412;6.724;2022-12-29T03:23:45;10.90;99.90
9837;DHT22;4957;51.412;6.724;2022-12-29T03:26:16;10.90;99.90
9837;DHT22;4957;51.412;6.724;2022-12-29T03:28:46;10.90;99.90
9837;DHT22;4957;51.412;6.724;2022-12-29T03:31:14;10.90;99.90
9837;DHT22;4957;51.412;6.724;2022-12-29T03:33:41;10.90;99.90
9837;DHT22;4957;51.412;6.724;2022-12-29T03:36:13;10.90;99.90
9837;DHT22;4957;51.412;6.724;2022-12-29T03:38:45;10.90;99.90
9837;DHT22;4957;51.412;6.724;2022-12-29T03:41:16;10.90;99.90
9837;DHT22;4957;51.412;6.724;2022-12-29T03:43:42;10.80;99.90
9837;DHT22;4957;51.412;6.724;2022-12-29T03:46:08;10.90;99.90
9837;DHT22;4957;51.412;6.724;2022-12-29T03:48:34;10.90;99.90
9837;DHT22;4957;51.412;6.724;2022-12-29T03:50:59;10.90;99.90
9837;DHT22;4957;51.412;6.724;2022-12-29T03:53:25;10.90;99.90
9837;DHT22;4957;51.412;6.724;2022-12-29T03:55:51;10.90;99.90
9837;DHT22;4957;51.412;6.724;2022-12-29T03:58:16;10.90;99.90
9837;DHT22;4957;51.412;6.724;2022-12-29T04:00:42;10.90;99.90
9837;DHT22;4957;51.412;6.724;2022-12-29T04:03:07;10.90;99.90
9837;DHT22;4957;51.412;6.724;2022-12-29T04:05:33;10.90;99.90
9837;DHT22;4957;51.412;6.724;2022-12-29T04:07:59;10.90;99.90
9837;DHT22;4957;51.412;6.724;2022-12-29T04:10:25;10.90;99.90
9837;DHT22;4957;51.412;6.724;2022-12-29T04:12:51;10.90;99.90
9837;DHT22;4957;51.412;6.724;2022-12-29T04:15:16;10.90;99.90
9837;DHT22;4957;51.412;6.724;2022-12-29T04:17:42;10.90;99.90
9837;DHT22;4957;51.412;6.724;2022-12-29T04:20:08;10.90;99.90
9837;DHT22;4957;51.412;6.724;2022-12-29T04:23:00;10.90;99.90
9837;DHT22;4957;51.412;6.724;2022-12-29T04:25:26;10.90;99.90
9837;DHT22;4957;51.412;6.724;2022-12-29T04:27:52;10.90;99.90
9837;DHT22;4957;51.412;6.724;2022-12-29T04:30:17;10.90;99.90
9837;DHT22;4957;51.412;6.724;2022-12-29T04:32:43;10.90;99.90
9837;DHT22;4957;51.412;6.724;2022-12-29T04:35:09;10.90;99.90
9837;DHT22;4957;51.412;6.724;2022-12-29T04:37:34;10.90;99.90
9837;DHT22;4957;51.412;6.724;2022-12-29T04:40:00;10.90;99.90
9837;DHT22;4957;51.412;6.724;2022-12-29T04:42:25;10.90;99.90
9837;DHT22;4957;51.412;6.724;2022-12-29T04:44:51;10.90;99.90
9837;DHT22;4957;51.412;6.724;2022-12-29T04:47:17;10.90;99.90
9837;DHT22;4957;51.412;6.724;2022-12-29T04:49:42;10.90;99.90
9837;DHT22;4957;51.412;6.724;2022-12-29T04:52:08;10.90;99.90
9837;DHT22;4957;51.412;6.724;2022-12-29T04:54:34;10.90;99.90
9837;DHT22;4957;51.412;6.724;2022-12-29T04:56:59;10.90;99.90
9837;DHT22;4957;51.412;6.724;2022-12-29T04:59:25;10.90;99.90
9837;DHT22;4957;51.412;6.724;2022-12-29T05:01:51;10.90;99.90
9837;DHT22;4957;51.412;6.724;2022-12-29T05:04:17;10.90;99.90
9837;DHT22;4957;51.412;6.724;2022-12-29T05:06:42;10.90;99.90
9837;DHT22;4957;51.412;6.724;2022-12-29T05:09:08;10.90;99.90
9837;DHT22;4957;51.412;6.724;2022-12-29T05:11:34;10.90;99.90
9837;DHT22;4957;51.412;6.724;2022-12-29T05:13:59;10.90;99.90
9837;DHT22;4957;51.412;6.724;2022-12-29T05:16:25;10.90;99.90
9837;DHT22;4957;51.412;6.724;2022-12-29T05:18:51;10.90;99.90
9837;DHT22;4957;51.412;6.724;2022-12-29T05:21:16;10.90;99.90
9837;DHT22;4957;51.412;6.724;2022-12-29T05:23:42;10.90;99.90
9837;DHT22;4957;51.412;6.724;2022-12-29T05:26:07;10.90;99.90
9837;DHT22;4957;51.412;6.724;2022-12-29T05:28:33;10.90;99.90
9837;DHT22;4957;51.412;6.724;2022-12-29T05:30:59;10.90;99.90
9837;DHT22;4957;51.412;6.724;2022-12-29T05:33:24;10.90;99.90
9837;DHT22;4957;51.412;6.724;2022-12-29T05:35:50;10.90;99.90
9837;DHT22;4957;51.412;6.724;2022-12-29T05:38:15;10.90;99.90
9837;DHT22;4957;51.412;6.724;2022-12-29T05:40:42;10.90;99.90
9837;DHT22;4957;51.412;6.724;2022-12-29T05:43:08;10.90;99.90
9837;DHT22;4957;51.412;6.724;2022-12-29T05:45:35;10.90;99.90
9837;DHT22;4957;51.412;6.724;2022-12-29T05:48:00;10.90;99.90
9837;DHT22;4957;51.412;6.724;2022-12-29T05:50:26;10.90;99.90
9837;DHT22;4957;51.412;6.724;2022-12-29T05:52:52;10.90;99.90
9837;DHT22;4957;51.412;6.724;2022-12-29T05:55:17;10.80;99.90
9837;DHT22;4957;51.412;6.724;2022-12-29T05:57:43;10.80;99.90
9837;DHT22;4957;51.412;6.724;2022-12-29T06:00:09;10.80;99.90
9837;DHT22;4957;51.412;6.724;2022-12-29T06:02:35;10.80;99.90
9837;DHT22;4957;51.412;6.724;2022-12-29T06:05:01;10.80;99.90
9837;DHT22;4957;51.412;6.724;2022-12-29T06:07:27;10.80;99.90
9837;DHT22;4957;51.412;6.724;2022-12-29T06:09:53;10.80;99.90
9837;DHT22;4957;51.412;6.724;2022-12-29T06:12:18;10.80;99.90
9837;DHT22;4957;51.412;6.724;2022-12-29T06:14:44;10.70;99.90
9837;DHT22;4957;51.412;6.724;2022-12-29T06:17:10;10.70;99.90
9837;DHT22;4957;51.412;6.724;2022-12-29T06:19:35;10.70;99.90
9837;DHT22;4957;51.412;6.724;2022-12-29T06:22:01;10.70;99.90
9837;DHT22;4957;51.412;6.724;2022-12-29T06:24:27;10.70;99.90
9837;DHT22;4957;51.412;6.724;2022-12-29T06:26:53;10.60;99.90
9837;DHT22;4957;51.412;6.724;2022-12-29T06:29:18;10.60;99.90
9837;DHT22;4957;51.412;6.724;2022-12-29T06:31:46;10.60;99.90
9837;DHT22;4957;51.412;6.724;2022-12-29T06:34:12;10.60;99.90
9837;DHT22;4957;51.412;6.724;2022-12-29T06:36:38;10.60;99.90
9837;DHT22;4957;51.412;6.724;2022-12-29T06:39:05;10.60;99.90
9837;DHT22;4957;51.412;6.724;2022-12-29T06:41:30;10.60;99.90
9837;DHT22;4957;51.412;6.724;2022-12-29T06:43:57;10.60;99.90
9837;DHT22;4957;51.412;6.724;2022-12-29T06:46:22;10.60;99.90
9837;DHT22;4957;51.412;6.724;2022-12-29T06:48:48;10.60;99.90
9837;DHT22;4957;51.412;6.724;2022-12-29T06:51:13;10.60;99.90
9837;DHT22;4957;51.412;6.724;2022-12-29T06:53:39;10.60;99.90
9837;DHT22;4957;51.412;6.724;2022-12-29T06:56:05;10.60;99.90
9837;DHT22;4957;51.412;6.724;2022-12-29T06:58:30;10.60;99.90
9837;DHT22;4957;51.412;6.724;2022-12-29T07:00:56;10.60;99.90
9837;DHT22;4957;51.412;6.724;2022-12-29T07:03:22;10.60;99.90
9837;DHT22;4957;51.412;6.724;2022-12-29T07:05:47;10.60;99.90
9837;DHT22;4957;51.412;6.724;2022-12-29T07:08:13;10.60;99.90
9837;DHT22;4957;51.412;6.724;2022-12-29T07:10:39;10.60;99.90
9837;DHT22;4957;51.412;6.724;2022-12-29T07:13:05;10.60;99.90
9837;DHT22;4957;51.412;6.724;2022-12-29T07:15:33;10.60;99.90
9837;DHT22;4957;51.412;6.724;2022-12-29T07:17:59;10.60;99.90
9837;DHT22;4957;51.412;6.724;2022-12-29T07:20:25;10.60;99.90
9837;DHT22;4957;51.412;6.724;2022-12-29T07:22:51;10.70;99.90
9837;DHT22;4957;51.412;6.724;2022-12-29T07:25:16;10.70;99.90
9837;DHT22;4957;51.412;6.724;2022-12-29T07:27:42;10.70;99.90
9837;DHT22;4957;51.412;6.724;2022-12-29T07:30:09;10.70;99.90
9837;DHT22;4957;51.412;6.724;2022-12-29T07:32:35;10.70;99.90
9837;DHT22;4957;51.412;6.724;2022-12-29T07:35:01;10.70;99.90
9837;DHT22;4957;51.412;6.724;2022-12-29T07:37:27;10.70;99.90
9837;DHT22;4957;51.412;6.724;2022-12-29T07:39:52;10.70;99.90
9837;DHT22;4957;51.412;6.724;2022-12-29T07:42:18;10.70;99.90
9837;DHT22;4957;51.412;6.724;2022-12-29T07:44:44;10.70;99.90
9837;DHT22;4957;51.412;6.724;2022-12-29T07:47:09;10.70;99.90
9837;DHT22;4957;51.412;6.724;2022-12-29T07:49:35;10.70;99.90
9837;DHT22;4957;51.412;6.724;2022-12-29T07:52:01;10.70;99.90
9837;DHT22;4957;51.412;6.724;2022-12-29T07:54:26;10.70;99.90
9837;DHT22;4957;51.412;6.724;2022-12-29T07:56:52;10.70;99.90
9837;DHT22;4957;51.412;6.724;2022-12-29T07:59:18;10.70;99.90
9837;DHT22;4957;51.412;6.724;2022-12-29T08:01:43;10.70;99.90
9837;DHT22;4957;51.412;6.724;2022-12-29T08:04:09;10.60;99.90
9837;DHT22;4957;51.412;6.724;2022-12-29T08:06:35;10.60;99.90
9837;DHT22;4957;51.412;6.724;2022-12-29T08:09:00;10.60;99.90
9837;DHT22;4957;51.412;6.724;2022-12-29T08:11:27;10.60;99.90
9837;DHT22;4957;51.412;6.724;2022-12-29T08:13:52;10.60;99.90
9837;DHT22;4957;51.412;6.724;2022-12-29T08:16:18;10.60;99.90
9837;DHT22;4957;51.412;6.724;2022-12-29T08:18:44;10.60;99.90
9837;DHT22;4957;51.412;6.724;2022-12-29T08:21:10;10.70;99.90
9837;DHT22;4957;51.412;6.724;2022-12-29T08:23:36;10.60;99.90
9837;DHT22;4957;51.412;6.724;2022-12-29T08:26:04;10.60;99.90
9837;DHT22;4957;51.412;6.724;2022-12-29T08:28:30;10.60;99.90
9837;DHT22;4957;51.412;6.724;2022-12-29T08:31:03;10.60;99.90
9837;DHT22;4957;51.412;6.724;2022-12-29T08:33:29;10.60;99.90
9837;DHT22;4957;51.412;6.724;2022-12-29T08:36:03;10.60;99.90
9837;DHT22;4957;51.412;6.724;2022-12-29T08:38:29;10.60;99.90
9837;DHT22;4957;51.412;6.724;2022-12-29T08:40:55;10.60;99.90
9837;DHT22;4957;51.412;6.724;2022-12-29T08:43:21;10.60;99.90
9837;DHT22;4957;51.412;6.724;2022-12-29T08:45:47;10.60;99.90
9837;DHT22;4957;51.412;6.724;2022-12-29T08:48:13;10.60;99.90
9837;DHT22;4957;51.412;6.724;2022-12-29T08:50:38;10.60;99.90
9837;DHT22;4957;51.412;6.724;2022-12-29T08:53:04;10.70;99.90
9837;DHT22;4957;51.412;6.724;2022-12-29T08:55:30;10.70;99.90
9837;DHT22;4957;51.412;6.724;2022-12-29T08:57:55;10.70;99.90
9837;DHT22;4957;51.412;6.724;2022-12-29T09:00:21;10.70;99.90
9837;DHT22;4957;51.412;6.724;2022-12-29T09:02:47;10.70;99.90
9837;DHT22;4957;51.412;6.724;2022-12-29T09:05:13;10.60;99.90
9837;DHT22;4957;51.412;6.724;2022-12-29T09:07:38;10.70;99.90
9837;DHT22;4957;51.412;6.724;2022-12-29T09:10:04;10.70;99.90
9837;DHT22;4957;51.412;6.724;2022-12-29T09:12:30;10.70;99.90
9837;DHT22;4957;51.412;6.724;2022-12-29T09:14:55;10.70;99.90
9837;DHT22;4957;51.412;6.724;2022-12-29T09:17:21;10.70;99.90
9837;DHT22;4957;51.412;6.724;2022-12-29T09:20:06;10.70;99.90
9837;DHT22;4957;51.412;6.724;2022-12-29T09:22:31;10.70;99.90
9837;DHT22;4957;51.412;6.724;2022-12-29T09:24:57;10.80;99.90
9837;DHT22;4957;51.412;6.724;2022-12-29T09:27:23;10.80;99.90
9837;DHT22;4957;51.412;6.724;2022-12-29T09:29:48;10.80;99.90
9837;DHT22;4957;51.412;6.724;2022-12-29T09:32:14;10.80;99.90
9837;DHT22;4957;51.412;6.724;2022-12-29T09:34:40;10.80;99.90
9837;DHT22;4957;51.412;6.724;2022-12-29T09:37:06;10.80;99.90
9837;DHT22;4957;51.412;6.724;2022-12-29T09:39:31;10.80;99.90
9837;DHT22;4957;51.412;6.724;2022-12-29T09:45:15;10.80;99.90
9837;DHT22;4957;51.412;6.724;2022-12-29T09:47:45;10.80;99.90
9837;DHT22;4957;51.412;6.724;2022-12-29T09:50:35;10.80;99.90
9837;DHT22;4957;51.412;6.724;2022-12-29T09:55:37;10.90;99.90
9837;DHT22;4957;51.412;6.724;2022-12-29T09:58:09;10.80;99.90
9837;DHT22;4957;51.412;6.724;2022-12-29T10:00:59;10.80;99.90
9837;DHT22;4957;51.412;6.724;2022-12-29T10:03:49;10.90;99.90
9837;DHT22;4957;51.412;6.724;2022-12-29T10:08:57;10.90;99.90
9837;DHT22;4957;51.412;6.724;2022-12-29T10:25:39;10.90;99.90
9837;DHT22;4957;51.412;6.724;2022-12-29T10:28:16;10.90;99.90
9837;DHT22;4957;51.412;6.724;2022-12-29T10:30:43;10.90;99.90
9837;DHT22;4957;51.412;6.724;2022-12-29T10:33:17;10.90;99.90
9837;DHT22;4957;51.412;6.724;2022-12-29T10:35:44;10.90;99.90
9837;DHT22;4957;51.412;6.724;2022-12-29T10:38:39;10.90;99.90
9837;DHT22;4957;51.412;6.724;2022-12-29T10:41:13;10.90;99.90
9837;DHT22;4957;51.412;6.724;2022-12-29T10:43:49;10.90;99.90
9837;DHT22;4957;51.412;6.724;2022-12-29T10:46:27;10.90;99.90
9837;DHT22;4957;51.412;6.724;2022-12-29T10:48:54;10.90;99.90
9837;DHT22;4957;51.412;6.724;2022-12-29T10:51:41;10.90;99.90
9837;DHT22;4957;51.412;6.724;2022-12-29T10:56:56;10.90;99.90
9837;DHT22;4957;51.412;6.724;2022-12-29T10:59:29;11.00;99.90
9837;DHT22;4957;51.412;6.724;2022-12-29T11:07:12;11.10;99.90
9837;DHT22;4957;51.412;6.724;2022-12-29T11:09:41;11.00;99.90
9837;DHT22;4957;51.412;6.724;2022-12-29T11:12:28;11.10;99.90
9837;DHT22;4957;51.412;6.724;2022-12-29T11:17:50;11.10;99.90
9837;DHT22;4957;51.412;6.724;2022-12-29T11:20:37;11.10;99.90
9837;DHT22;4957;51.412;6.724;2022-12-29T11:23:06;11.20;99.90
9837;DHT22;4957;51.412;6.724;2022-12-29T11:25:45;11.20;99.90
9837;DHT22;4957;51.412;6.724;2022-12-29T11:28:15;11.20;99.90
9837;DHT22;4957;51.412;6.724;2022-12-29T11:30:42;11.20;99.90
9837;DHT22;4957;51.412;6.724;2022-12-29T11:33:09;11.30;99.90
9837;DHT22;4957;51.412;6.724;2022-12-29T11:35:44;11.30;99.90
9837;DHT22;4957;51.412;6.724;2022-12-29T11:38:20;11.30;99.90
9837;DHT22;4957;51.412;6.724;2022-12-29T11:40:47;11.30;99.90
9837;DHT22;4957;51.412;6.724;2022-12-29T11:43:30;11.30;99.90
9837;DHT22;4957;51.412;6.724;2022-12-29T11:45:59;11.40;99.90
9837;DHT22;4957;51.412;6.724;2022-12-29T11:48:29;11.40;99.90
9837;DHT22;4957;51.412;6.724;2022-12-29T11:50:58;11.40;99.90
9837;DHT22;4957;51.412;6.724;2022-12-29T11:53:43;11.40;99.90
9837;DHT22;4957;51.412;6.724;2022-12-29T11:56:19;11.40;99.90
9837;DHT22;4957;51.412;6.724;2022-12-29T11:58:45;11.40;99.90
9837;DHT22;4957;51.412;6.724;2022-12-29T12:01:37;11.50;99.90
9837;DHT22;4957;51.412;6.724;2022-12-29T12:04:12;11.50;99.90
9837;DHT22;4957;51.412;6.724;2022-12-29T12:09:43;11.50;99.90
9837;DHT22;4957;51.412;6.724;2022-12-29T12:12:30;11.50;99.90
9837;DHT22;4957;51.412;6.724;2022-12-29T12:14:58;11.60;99.90
9837;DHT22;4957;51.412;6.724;2022-12-29T12:20:19;11.60;99.90
9837;DHT22;4957;51.412;6.724;2022-12-29T12:25:36;11.60;99.90
9837;DHT22;4957;51.412;6.724;2022-12-29T12:28:15;11.60;99.90
9837;DHT22;4957;51.412;6.724;2022-12-29T12:30:47;11.60;99.90
9837;DHT22;4957;51.412;6.724;2022-12-29T12:33:39;11.60;99.90
9837;DHT22;4957;51.412;6.724;2022-12-29T12:36:28;11.60;99.90
9837;DHT22;4957;51.412;6.724;2022-12-29T12:41:56;11.60;99.90
9837;DHT22;4957;51.412;6.724;2022-12-29T12:50:18;11.70;99.90
9837;DHT22;4957;51.412;6.724;2022-12-29T12:53:19;11.70;99.90
9837;DHT22;4957;51.412;6.724;2022-12-29T12:56:07;11.70;99.90
9837;DHT22;4957;51.412;6.724;2022-12-29T12:58:54;11.70;99.90
9837;DHT22;4957;51.412;6.724;2022-12-29T13:06:47;11.70;99.90
9837;DHT22;4957;51.412;6.724;2022-12-29T13:11:55;11.70;99.90
9837;DHT22;4957;51.412;6.724;2022-12-29T13:17:24;11.70;99.90
9837;DHT22;4957;51.412;6.724;2022-12-29T13:25:22;11.80;99.90
9837;DHT22;4957;51.412;6.724;2022-12-29T13:28:03;11.80;99.90
9837;DHT22;4957;51.412;6.724;2022-12-29T13:30:43;11.80;99.90
9837;DHT22;4957;51.412;6.724;2022-12-29T13:33:39;11.80;99.90
9837;DHT22;4957;51.412;6.724;2022-12-29T13:36:18;11.80;99.90
9837;DHT22;4957;51.412;6.724;2022-12-29T13:39:01;11.80;99.90
9837;DHT22;4957;51.412;6.724;2022-12-29T13:41:39;11.80;99.90
9837;DHT22;4957;51.412;6.724;2022-12-29T13:44:07;11.80;99.90
9837;DHT22;4957;51.412;6.724;2022-12-29T13:46:41;11.80;99.90
9837;DHT22;4957;51.412;6.724;2022-12-29T13:49:18;11.80;99.90
9837;DHT22;4957;51.412;6.724;2022-12-29T13:51:53;11.80;99.90
9837;DHT22;4957;51.412;6.724;2022-12-29T13:59:44;11.80;99.90
9837;DHT22;4957;51.412;6.724;2022-12-29T14:05:27;11.70;99.90
9837;DHT22;4957;51.412;6.724;2022-12-29T14:08:04;11.70;99.90
9837;DHT22;4957;51.412;6.724;2022-12-29T14:10:50;11.70;99.90
9837;DHT22;4957;51.412;6.724;2022-12-29T14:13:22;11.70;99.90
9837;DHT22;4957;51.412;6.724;2022-12-29T14:15:56;11.70;99.90
9837;DHT22;4957;51.412;6.724;2022-12-29T14:18:32;11.70;99.90
9837;DHT22;4957;51.412;6.724;2022-12-29T14:21:01;11.70;99.90
9837;DHT22;4957;51.412;6.724;2022-12-29T14:28:46;11.60;99.90
9837;DHT22;4957;51.412;6.724;2022-12-29T14:36:35;11.60;99.90
9837;DHT22;4957;51.412;6.724;2022-12-29T14:39:02;11.60;99.90
9837;DHT22;4957;51.412;6.724;2022-12-29T14:41:46;11.50;99.90
9837;DHT22;4957;51.412;6.724;2022-12-29T14:44:18;11.60;99.90
9837;DHT22;4957;51.412;6.724;2022-12-29T14:46:56;11.60;99.90
9837;DHT22;4957;51.412;6.724;2022-12-29T14:49:28;11.50;99.90
9837;DHT22;4957;51.412;6.724;2022-12-29T14:52:17;11.50;99.70
9837;DHT22;4957;51.412;6.724;2022-12-29T14:54:49;11.50;99.70
9837;DHT22;4957;51.412;6.724;2022-12-29T14:57:30;11.50;99.70
9837;DHT22;4957;51.412;6.724;2022-12-29T15:00:07;11.50;99.60
9837;DHT22;4957;51.412;6.724;2022-12-29T15:02:43;11.50;99.70
9837;DHT22;4957;51.412;6.724;2022-12-29T15:05:43;11.50;99.70
9837;DHT22;4957;51.412;6.724;2022-12-29T15:08:12;11.50;99.60
9837;DHT22;4957;51.412;6.724;2022-12-29T15:10:55;11.40;99.70
9837;DHT22;4957;51.412;6.724;2022-12-29T15:13:33;11.40;99.50
9837;DHT22;4957;51.412;6.724;2022-12-29T15:15:59;11.40;99.70
9837;DHT22;4957;51.412;6.724;2022-12-29T15:18:28;11.40;99.80
9837;DHT22;4957;51.412;6.724;2022-12-29T15:21:03;11.40;99.70
9837;DHT22;4957;51.412;6.724;2022-12-29T15:23:31;11.40;99.60
9837;DHT22;4957;51.412;6.724;2022-12-29T15:26:08;11.40;99.80
9837;DHT22;4957;51.412;6.724;2022-12-29T15:28:52;11.40;99.90
9837;DHT22;4957;51.412;6.724;2022-12-29T15:31:24;11.40;99.60
9837;DHT22;4957;51.412;6.724;2022-12-29T15:33:53;11.30;99.90
9837;DHT22;4957;51.412;6.724;2022-12-29T15:36:20;11.30;99.70
9837;DHT22;4957;51.412;6.724;2022-12-29T15:38:47;11.30;99.90
9837;DHT22;4957;51.412;6.724;2022-12-29T15:42:09;11.30;99.80
9837;DHT22;4957;51.412;6.724;2022-12-29T15:44:40;11.30;99.70
9837;DHT22;4957;51.412;6.724;2022-12-29T15:47:22;11.20;99.70
9837;DHT22;4957;51.412;6.724;2022-12-29T15:52:27;11.20;99.50
9837;DHT22;4957;51.412;6.724;2022-12-29T15:54:54;11.10;99.70
9837;DHT22;4957;51.412;6.724;2022-12-29T15:57:36;11.20;99.60
9837;DHT22;4957;51.412;6.724;2022-12-29T16:00:03;11.10;99.50
9837;DHT22;4957;51.412;6.724;2022-12-29T16:02:29;11.10;99.70
9837;DHT22;4957;51.412;6.724;2022-12-29T16:04:55;11.10;99.60
9837;DHT22;4957;51.412;6.724;2022-12-29T16:07:30;11.10;99.70
9837;DHT22;4957;51.412;6.724;2022-12-29T16:09:58;11.00;99.70
9837;DHT22;4957;51.412;6.724;2022-12-29T16:12:37;11.00;99.80
9837;DHT22;4957;51.412;6.724;2022-12-29T16:15:07;11.00;99.70
9837;DHT22;4957;51.412;6.724;2022-12-29T16:17:50;11.00;99.60
9837;DHT22;4957;51.412;6.724;2022-12-29T16:20:37;10.90;99.40
9837;DHT22;4957;51.412;6.724;2022-12-29T16:23:04;10.90;99.30
9837;DHT22;4957;51.412;6.724;2022-12-29T16:25:32;10.80;99.30
9837;DHT22;4957;51.412;6.724;2022-12-29T16:28:00;10.80;99.30
9837;DHT22;4957;51.412;6.724;2022-12-29T16:30:29;10.80;99.20
9837;DHT22;4957;51.412;6.724;2022-12-29T16:32:58;10.80;99.20
9837;DHT22;4957;51.412;6.724;2022-12-29T16:38:17;10.80;99.30
9837;DHT22;4957;51.412;6.724;2022-12-29T16:41:02;10.70;99.20
9837;DHT22;4957;51.412;6.724;2022-12-29T16:43:33;10.70;99.30
9837;DHT22;4957;51.412;6.724;2022-12-29T16:48:34;10.60;99.20
9837;DHT22;4957;51.412;6.724;2022-12-29T16:51:30;10.60;99.00
9837;DHT22;4957;51.412;6.724;2022-12-29T16:53:58;10.60;99.30
9837;DHT22;4957;51.412;6.724;2022-12-29T16:56:27;10.60;99.90
9837;DHT22;4957;51.412;6.724;2022-12-29T16:59:33;10.60;99.90
9837;DHT22;4957;51.412;6.724;2022-12-29T17:02:12;10.60;99.90
9837;DHT22;4957;51.412;6.724;2022-12-29T17:04:38;10.50;99.90
9837;DHT22;4957;51.412;6.724;2022-12-29T17:07:17;10.50;99.90
9837;DHT22;4957;51.412;6.724;2022-12-29T17:09:44;10.50;99.90
9837;DHT22;4957;51.412;6.724;2022-12-29T17:12:16;10.50;99.90
9837;DHT22;4957;51.412;6.724;2022-12-29T17:14:45;10.50;99.90
9837;DHT22;4957;51.412;6.724;2022-12-29T17:19:48;10.40;99.90
9837;DHT22;4957;51.412;6.724;2022-12-29T17:22:22;10.40;99.90
9837;DHT22;4957;51.412;6.724;2022-12-29T17:24:50;10.30;99.90
9837;DHT22;4957;51.412;6.724;2022-12-29T17:27:30;10.30;99.90
9837;DHT22;4957;51.412;6.724;2022-12-29T17:30:01;10.30;99.90
9837;DHT22;4957;51.412;6.724;2022-12-29T17:32:35;10.30;99.90
9837;DHT22;4957;51.412;6.724;2022-12-29T17:35:01;10.30;99.90
9837;DHT22;4957;51.412;6.724;2022-12-29T17:37:30;10.30;99.90
9837;DHT22;4957;51.412;6.724;2022-12-29T17:39:57;10.30;99.90
9837;DHT22;4957;51.412;6.724;2022-12-29T17:42:23;10.30;99.90
9837;DHT22;4957;51.412;6.724;2022-12-29T17:44:48;10.30;99.90
9837;DHT22;4957;51.412;6.724;2022-12-29T17:47:14;10.30;99.90
9837;DHT22;4957;51.412;6.724;2022-12-29T17:49:40;10.30;99.90
9837;DHT22;4957;51.412;6.724;2022-12-29T17:52:13;10.20;99.90
9837;DHT22;4957;51.412;6.724;2022-12-29T17:54:46;10.20;99.90
9837;DHT22;4957;51.412;6.724;2022-12-29T17:57:15;10.20;99.90
9837;DHT22;4957;51.412;6.724;2022-12-29T17:59:41;10.20;99.90
9837;DHT22;4957;51.412;6.724;2022-12-29T18:02:24;10.20;99.90
9837;DHT22;4957;51.412;6.724;2022-12-29T18:04:50;10.20;99.90
9837;DHT22;4957;51.412;6.724;2022-12-29T18:07:16;10.20;99.90
9837;DHT22;4957;51.412;6.724;2022-12-29T18:09:41;10.10;99.90
9837;DHT22;4957;51.412;6.724;2022-12-29T18:14:50;10.00;99.90
9837;DHT22;4957;51.412;6.724;2022-12-29T18:17:16;10.00;99.90
9837;DHT22;4957;51.412;6.724;2022-12-29T18:19:41;9.90;99.90
9837;DHT22;4957;51.412;6.724;2022-12-29T18:22:07;9.90;99.90
9837;DHT22;4957;51.412;6.724;2022-12-29T18:24:33;9.80;99.90
9837;DHT22;4957;51.412;6.724;2022-12-29T18:26:59;9.70;99.90
9837;DHT22;4957;51.412;6.724;2022-12-29T18:29:25;9.70;99.90
9837;DHT22;4957;51.412;6.724;2022-12-29T18:31:50;9.70;99.90
9837;DHT22;4957;51.412;6.724;2022-12-29T18:34:16;9.60;99.90
9837;DHT22;4957;51.412;6.724;2022-12-29T18:36:42;9.60;99.90